sensor_id;sensor_type;location;lat;lon;timestamp;P1;durP1;ratioP1;P2;durP2;ratioP2
47635;SDS011;33364;50.766;15.338;2023-04-16T00:00:39;6.03;;;3.72;;
47635;SDS011;33364;50.766;15.338;2023-04-16T00:03:25;4.80;;;3.50;;
47635;SDS011;33364;50.766;15.338;2023-04-16T00:05:50;6.15;;;3.70;;
47635;SDS011;33364;50.766;15.338;2023-04-16T00:08:20;8.77;;;4.82;;
47635;SDS011;33364;50.766;15.338;2023-04-16T00:10:49;5.10;;;2.78;;
47635;SDS011;33364;50.766;15.338;2023-04-16T00:13:15;4.70;;;2.58;;
47635;SDS011;33364;50.766;15.338;2023-04-16T00:15:41;5.85;;;3.45;;
47635;SDS011;33364;50.766;15.338;2023-04-16T00:18:07;5.88;;;3.90;;
47635;SDS011;33364;50.766;15.338;2023-04-16T00:20:32;7.03;;;4.00;;
47635;SDS011;33364;50.766;15.338;2023-04-16T00:22:58;4.10;;;2.75;;
47635;SDS011;33364;50.766;15.338;2023-04-16T00:25:24;5.15;;;3.28;;
47635;SDS011;33364;50.766;15.338;2023-04-16T00:27:50;6.68;;;2.70;;
47635;SDS011;33364;50.766;15.338;2023-04-16T00:30:15;4.25;;;2.45;;
47635;SDS011;33364;50.766;15.338;2023-04-16T00:32:41;5.38;;;2.92;;
47635;SDS011;33364;50.766;15.338;2023-04-16T00:35:07;9.05;;;4.70;;
47635;SDS011;33364;50.766;15.338;2023-04-16T00:37:33;5.28;;;3.20;;
47635;SDS011;33364;50.766;15.338;2023-04-16T00:39:59;7.40;;;3.53;;
47635;SDS011;33364;50.766;15.338;2023-04-16T00:42:25;3.40;;;2.35;;
47635;SDS011;33364;50.766;15.338;2023-04-16T00:44:51;3.97;;;3.00;;
47635;SDS011;33364;50.766;15.338;2023-04-16T00:47:18;5.00;;;2.42;;
47635;SDS011;33364;50.766;15.338;2023-04-16T00:49:45;5.40;;;2.72;;
47635;SDS011;33364;50.766;15.338;2023-04-16T00:52:11;4.97;;;2.88;;
47635;SDS011;33364;50.766;15.338;2023-04-16T00:54:36;4.18;;;2.50;;
47635;SDS011;33364;50.766;15.338;2023-04-16T00:57:03;4.45;;;2.50;;
47635;SDS011;33364;50.766;15.338;2023-04-16T00:59:30;3.22;;;2.00;;
47635;SDS011;33364;50.766;15.338;2023-04-16T01:01:56;3.45;;;2.20;;
47635;SDS011;33364;50.766;15.338;2023-04-16T01:04:22;3.97;;;2.65;;
47635;SDS011;33364;50.766;15.338;2023-04-16T01:06:48;5.70;;;3.17;;
47635;SDS011;33364;50.766;15.338;2023-04-16T01:09:15;4.25;;;2.65;;
47635;SDS011;33364;50.766;15.338;2023-04-16T01:11:41;4.50;;;2.67;;
47635;SDS011;33364;50.766;15.338;2023-04-16T01:14:06;5.10;;;2.75;;
47635;SDS011;33364;50.766;15.338;2023-04-16T01:16:32;6.57;;;3.28;;
47635;SDS011;33364;50.766;15.338;2023-04-16T01:18:58;4.47;;;2.40;;
47635;SDS011;33364;50.766;15.338;2023-04-16T01:21:24;3.30;;;1.90;;
47635;SDS011;33364;50.766;15.338;2023-04-16T01:23:51;4.47;;;2.20;;
47635;SDS011;33364;50.766;15.338;2023-04-16T01:26:16;5.65;;;3.42;;
47635;SDS011;33364;50.766;15.338;2023-04-16T01:28:42;4.70;;;2.63;;
47635;SDS011;33364;50.766;15.338;2023-04-16T01:31:07;6.18;;;3.13;;
47635;SDS011;33364;50.766;15.338;2023-04-16T01:33:33;7.47;;;3.05;;
47635;SDS011;33364;50.766;15.338;2023-04-16T01:35:59;6.65;;;2.38;;
47635;SDS011;33364;50.766;15.338;2023-04-16T01:38:25;4.30;;;2.63;;
47635;SDS011;33364;50.766;15.338;2023-04-16T01:40:54;5.55;;;2.75;;
47635;SDS011;33364;50.766;15.338;2023-04-16T01:43:21;6.05;;;2.30;;
47635;SDS011;33364;50.766;15.338;2023-04-16T01:45:47;4.25;;;2.83;;
47635;SDS011;33364;50.766;15.338;2023-04-16T01:48:13;3.65;;;2.35;;
47635;SDS011;33364;50.766;15.338;2023-04-16T01:50:38;7.68;;;3.50;;
47635;SDS011;33364;50.766;15.338;2023-04-16T01:53:04;11.85;;;5.28;;
47635;SDS011;33364;50.766;15.338;2023-04-16T01:55:31;12.93;;;5.00;;
47635;SDS011;33364;50.766;15.338;2023-04-16T01:58:00;5.28;;;3.45;;
47635;SDS011;33364;50.766;15.338;2023-04-16T02:00:25;6.75;;;2.50;;
47635;SDS011;33364;50.766;15.338;2023-04-16T02:02:51;4.75;;;2.40;;
47635;SDS011;33364;50.766;15.338;2023-04-16T02:05:17;3.00;;;1.80;;
47635;SDS011;33364;50.766;15.338;2023-04-16T02:07:43;2.00;;;1.45;;
47635;SDS011;33364;50.766;15.338;2023-04-16T02:10:09;2.63;;;1.90;;
47635;SDS011;33364;50.766;15.338;2023-04-16T02:12:35;3.78;;;2.33;;
47635;SDS011;33364;50.766;15.338;2023-04-16T02:15:00;3.72;;;2.15;;
47635;SDS011;33364;50.766;15.338;2023-04-16T02:17:27;3.03;;;2.20;;
47635;SDS011;33364;50.766;15.338;2023-04-16T02:19:52;3.60;;;2.35;;
47635;SDS011;33364;50.766;15.338;2023-04-16T02:22:18;3.65;;;2.42;;
47635;SDS011;33364;50.766;15.338;2023-04-16T02:24:44;8.00;;;3.70;;
47635;SDS011;33364;50.766;15.338;2023-04-16T02:27:10;17.45;;;6.93;;
47635;SDS011;33364;50.766;15.338;2023-04-16T02:29:35;15.63;;;6.65;;
47635;SDS011;33364;50.766;15.338;2023-04-16T02:32:01;5.05;;;3.08;;
47635;SDS011;33364;50.766;15.338;2023-04-16T02:34:27;6.88;;;2.70;;
47635;SDS011;33364;50.766;15.338;2023-04-16T02:36:52;5.60;;;3.10;;
47635;SDS011;33364;50.766;15.338;2023-04-16T02:39:19;6.95;;;2.70;;
47635;SDS011;33364;50.766;15.338;2023-04-16T02:41:45;5.40;;;3.17;;
47635;SDS011;33364;50.766;15.338;2023-04-16T02:44:10;6.32;;;2.55;;
47635;SDS011;33364;50.766;15.338;2023-04-16T02:46:36;4.65;;;2.30;;
47635;SDS011;33364;50.766;15.338;2023-04-16T02:49:02;8.75;;;4.10;;
47635;SDS011;33364;50.766;15.338;2023-04-16T02:51:28;4.95;;;2.80;;
47635;SDS011;33364;50.766;15.338;2023-04-16T02:53:53;2.88;;;2.25;;
47635;SDS011;33364;50.766;15.338;2023-04-16T02:56:19;4.53;;;2.47;;
47635;SDS011;33364;50.766;15.338;2023-04-16T02:58:45;4.55;;;2.30;;
47635;SDS011;33364;50.766;15.338;2023-04-16T03:01:11;3.15;;;1.98;;
47635;SDS011;33364;50.766;15.338;2023-04-16T03:03:36;3.35;;;2.00;;
47635;SDS011;33364;50.766;15.338;2023-04-16T03:06:02;3.55;;;2.35;;
47635;SDS011;33364;50.766;15.338;2023-04-16T03:08:28;9.07;;;3.83;;
47635;SDS011;33364;50.766;15.338;2023-04-16T03:10:54;11.85;;;4.88;;
47635;SDS011;33364;50.766;15.338;2023-04-16T03:13:19;8.90;;;3.88;;
47635;SDS011;33364;50.766;15.338;2023-04-16T03:15:48;22.67;;;9.02;;
47635;SDS011;33364;50.766;15.338;2023-04-16T03:18:14;25.83;;;9.07;;
47635;SDS011;33364;50.766;15.338;2023-04-16T03:20:40;19.27;;;7.05;;
47635;SDS011;33364;50.766;15.338;2023-04-16T03:23:06;13.95;;;5.53;;
47635;SDS011;33364;50.766;15.338;2023-04-16T03:25:32;8.07;;;3.05;;
47635;SDS011;33364;50.766;15.338;2023-04-16T03:27:57;6.88;;;3.58;;
47635;SDS011;33364;50.766;15.338;2023-04-16T03:30:23;14.38;;;5.32;;
47635;SDS011;33364;50.766;15.338;2023-04-16T03:32:49;22.80;;;8.98;;
47635;SDS011;33364;50.766;15.338;2023-04-16T03:35:15;14.65;;;7.00;;
47635;SDS011;33364;50.766;15.338;2023-04-16T03:37:40;12.45;;;5.60;;
47635;SDS011;33364;50.766;15.338;2023-04-16T03:40:06;12.38;;;5.13;;
47635;SDS011;33364;50.766;15.338;2023-04-16T03:42:32;11.60;;;5.47;;
47635;SDS011;33364;50.766;15.338;2023-04-16T03:44:58;17.65;;;8.80;;
47635;SDS011;33364;50.766;15.338;2023-04-16T03:47:24;22.65;;;12.13;;
47635;SDS011;33364;50.766;15.338;2023-04-16T03:49:50;19.70;;;9.00;;
47635;SDS011;33364;50.766;15.338;2023-04-16T03:52:16;9.45;;;4.45;;
47635;SDS011;33364;50.766;15.338;2023-04-16T03:54:42;8.38;;;3.88;;
47635;SDS011;33364;50.766;15.338;2023-04-16T03:57:07;8.35;;;4.05;;
47635;SDS011;33364;50.766;15.338;2023-04-16T03:59:33;6.32;;;3.58;;
47635;SDS011;33364;50.766;15.338;2023-04-16T04:01:59;5.05;;;3.60;;
47635;SDS011;33364;50.766;15.338;2023-04-16T04:04:25;6.97;;;3.20;;
47635;SDS011;33364;50.766;15.338;2023-04-16T04:06:51;5.65;;;2.95;;
47635;SDS011;33364;50.766;15.338;2023-04-16T04:09:17;4.47;;;2.85;;
47635;SDS011;33364;50.766;15.338;2023-04-16T04:11:42;6.40;;;2.70;;
47635;SDS011;33364;50.766;15.338;2023-04-16T04:14:08;6.25;;;2.85;;
47635;SDS011;33364;50.766;15.338;2023-04-16T04:16:34;4.03;;;2.55;;
47635;SDS011;33364;50.766;15.338;2023-04-16T04:18:59;3.58;;;2.35;;
47635;SDS011;33364;50.766;15.338;2023-04-16T04:21:26;3.92;;;2.33;;
47635;SDS011;33364;50.766;15.338;2023-04-16T04:23:52;5.70;;;2.80;;
47635;SDS011;33364;50.766;15.338;2023-04-16T04:26:18;4.57;;;2.42;;
47635;SDS011;33364;50.766;15.338;2023-04-16T04:28:44;3.67;;;2.20;;
47635;SDS011;33364;50.766;15.338;2023-04-16T04:31:11;4.65;;;2.42;;
47635;SDS011;33364;50.766;15.338;2023-04-16T04:33:37;2.78;;;1.95;;
47635;SDS011;33364;50.766;15.338;2023-04-16T04:36:03;4.85;;;2.20;;
47635;SDS011;33364;50.766;15.338;2023-04-16T04:38:29;3.13;;;2.13;;
47635;SDS011;33364;50.766;15.338;2023-04-16T04:40:55;5.30;;;2.17;;
47635;SDS011;33364;50.766;15.338;2023-04-16T04:43:21;4.22;;;2.78;;
47635;SDS011;33364;50.766;15.338;2023-04-16T04:45:47;3.85;;;2.03;;
47635;SDS011;33364;50.766;15.338;2023-04-16T04:48:14;2.45;;;1.58;;
47635;SDS011;33364;50.766;15.338;2023-04-16T04:50:40;3.47;;;2.08;;
47635;SDS011;33364;50.766;15.338;2023-04-16T04:53:07;3.65;;;2.33;;
47635;SDS011;33364;50.766;15.338;2023-04-16T04:55:36;2.42;;;1.80;;
47635;SDS011;33364;50.766;15.338;2023-04-16T04:58:03;4.70;;;2.55;;
47635;SDS011;33364;50.766;15.338;2023-04-16T05:00:30;3.42;;;2.35;;
47635;SDS011;33364;50.766;15.338;2023-04-16T05:02:56;3.65;;;1.92;;
47635;SDS011;33364;50.766;15.338;2023-04-16T05:05:22;4.63;;;2.85;;
47635;SDS011;33364;50.766;15.338;2023-04-16T05:07:48;4.22;;;3.10;;
47635;SDS011;33364;50.766;15.338;2023-04-16T05:10:13;5.25;;;2.83;;
47635;SDS011;33364;50.766;15.338;2023-04-16T05:12:39;6.00;;;3.00;;
47635;SDS011;33364;50.766;15.338;2023-04-16T05:15:05;3.20;;;2.67;;
47635;SDS011;33364;50.766;15.338;2023-04-16T05:17:32;3.45;;;2.17;;
47635;SDS011;33364;50.766;15.338;2023-04-16T05:19:59;3.10;;;2.25;;
47635;SDS011;33364;50.766;15.338;2023-04-16T05:22:25;3.47;;;2.25;;
47635;SDS011;33364;50.766;15.338;2023-04-16T05:24:50;3.05;;;1.92;;
47635;SDS011;33364;50.766;15.338;2023-04-16T05:27:16;4.63;;;1.90;;
47635;SDS011;33364;50.766;15.338;2023-04-16T05:29:41;3.63;;;2.05;;
47635;SDS011;33364;50.766;15.338;2023-04-16T05:32:07;2.90;;;1.90;;
47635;SDS011;33364;50.766;15.338;2023-04-16T05:34:33;3.03;;;2.30;;
47635;SDS011;33364;50.766;15.338;2023-04-16T05:36:59;3.05;;;2.25;;
47635;SDS011;33364;50.766;15.338;2023-04-16T05:39:25;2.55;;;2.00;;
47635;SDS011;33364;50.766;15.338;2023-04-16T05:41:51;4.03;;;2.00;;
47635;SDS011;33364;50.766;15.338;2023-04-16T05:44:17;4.22;;;2.00;;
47635;SDS011;33364;50.766;15.338;2023-04-16T05:46:43;4.55;;;2.53;;
47635;SDS011;33364;50.766;15.338;2023-04-16T05:49:09;9.40;;;3.92;;
47635;SDS011;33364;50.766;15.338;2023-04-16T05:51:35;10.73;;;4.78;;
47635;SDS011;33364;50.766;15.338;2023-04-16T05:54:01;15.73;;;6.55;;
47635;SDS011;33364;50.766;15.338;2023-04-16T05:56:27;19.92;;;7.85;;
47635;SDS011;33364;50.766;15.338;2023-04-16T05:58:52;8.57;;;4.50;;
47635;SDS011;33364;50.766;15.338;2023-04-16T06:01:18;4.28;;;2.40;;
47635;SDS011;33364;50.766;15.338;2023-04-16T06:03:44;3.65;;;2.70;;
47635;SDS011;33364;50.766;15.338;2023-04-16T06:06:09;4.57;;;2.90;;
47635;SDS011;33364;50.766;15.338;2023-04-16T06:08:35;5.15;;;3.17;;
47635;SDS011;33364;50.766;15.338;2023-04-16T06:11:01;4.00;;;2.75;;
47635;SDS011;33364;50.766;15.338;2023-04-16T06:13:27;4.82;;;2.65;;
47635;SDS011;33364;50.766;15.338;2023-04-16T06:15:53;4.22;;;2.70;;
47635;SDS011;33364;50.766;15.338;2023-04-16T06:18:19;3.33;;;2.00;;
47635;SDS011;33364;50.766;15.338;2023-04-16T06:20:45;3.70;;;2.22;;
47635;SDS011;33364;50.766;15.338;2023-04-16T06:23:11;5.05;;;3.28;;
47635;SDS011;33364;50.766;15.338;2023-04-16T06:25:37;3.97;;;2.50;;
47635;SDS011;33364;50.766;15.338;2023-04-16T06:28:02;3.42;;;2.13;;
47635;SDS011;33364;50.766;15.338;2023-04-16T06:30:28;4.55;;;2.60;;
47635;SDS011;33364;50.766;15.338;2023-04-16T06:32:54;4.25;;;3.20;;
47635;SDS011;33364;50.766;15.338;2023-04-16T06:35:20;5.82;;;3.42;;
47635;SDS011;33364;50.766;15.338;2023-04-16T06:37:46;5.80;;;3.53;;
47635;SDS011;33364;50.766;15.338;2023-04-16T06:40:12;4.10;;;2.58;;
47635;SDS011;33364;50.766;15.338;2023-04-16T06:42:37;4.63;;;3.03;;
47635;SDS011;33364;50.766;15.338;2023-04-16T06:45:03;3.13;;;2.35;;
47635;SDS011;33364;50.766;15.338;2023-04-16T06:47:29;3.45;;;2.40;;
47635;SDS011;33364;50.766;15.338;2023-04-16T06:49:55;4.53;;;2.50;;
47635;SDS011;33364;50.766;15.338;2023-04-16T06:52:21;3.40;;;2.45;;
47635;SDS011;33364;50.766;15.338;2023-04-16T06:54:47;4.25;;;2.25;;
47635;SDS011;33364;50.766;15.338;2023-04-16T06:57:12;2.80;;;1.88;;
47635;SDS011;33364;50.766;15.338;2023-04-16T06:59:38;4.32;;;2.40;;
47635;SDS011;33364;50.766;15.338;2023-04-16T07:02:04;3.05;;;2.03;;
47635;SDS011;33364;50.766;15.338;2023-04-16T07:04:30;4.57;;;2.78;;
47635;SDS011;33364;50.766;15.338;2023-04-16T07:06:56;4.00;;;2.50;;
47635;SDS011;33364;50.766;15.338;2023-04-16T07:09:22;8.70;;;5.47;;
47635;SDS011;33364;50.766;15.338;2023-04-16T07:11:47;17.55;;;9.10;;
47635;SDS011;33364;50.766;15.338;2023-04-16T07:14:13;15.60;;;7.80;;
47635;SDS011;33364;50.766;15.338;2023-04-16T07:16:39;15.00;;;7.43;;
47635;SDS011;33364;50.766;15.338;2023-04-16T07:19:05;19.05;;;7.60;;
47635;SDS011;33364;50.766;15.338;2023-04-16T07:21:30;16.20;;;7.82;;
47635;SDS011;33364;50.766;15.338;2023-04-16T07:23:56;7.85;;;3.90;;
47635;SDS011;33364;50.766;15.338;2023-04-16T07:26:22;5.78;;;3.38;;
47635;SDS011;33364;50.766;15.338;2023-04-16T07:28:48;8.10;;;3.92;;
47635;SDS011;33364;50.766;15.338;2023-04-16T07:31:13;7.45;;;3.83;;
47635;SDS011;33364;50.766;15.338;2023-04-16T07:33:39;8.30;;;3.63;;
47635;SDS011;33364;50.766;15.338;2023-04-16T07:36:05;9.70;;;4.15;;
47635;SDS011;33364;50.766;15.338;2023-04-16T07:38:31;5.63;;;3.13;;
47635;SDS011;33364;50.766;15.338;2023-04-16T07:40:59;6.20;;;2.70;;
47635;SDS011;33364;50.766;15.338;2023-04-16T07:43:25;5.25;;;2.45;;
47635;SDS011;33364;50.766;15.338;2023-04-16T07:45:50;7.05;;;3.00;;
47635;SDS011;33364;50.766;15.338;2023-04-16T07:48:16;6.30;;;3.03;;
47635;SDS011;33364;50.766;15.338;2023-04-16T07:50:42;4.05;;;2.38;;
47635;SDS011;33364;50.766;15.338;2023-04-16T07:53:08;5.78;;;2.85;;
47635;SDS011;33364;50.766;15.338;2023-04-16T07:55:33;4.40;;;2.00;;
47635;SDS011;33364;50.766;15.338;2023-04-16T07:57:59;6.57;;;3.60;;
47635;SDS011;33364;50.766;15.338;2023-04-16T08:00:26;9.55;;;5.07;;
47635;SDS011;33364;50.766;15.338;2023-04-16T08:02:53;8.57;;;4.88;;
47635;SDS011;33364;50.766;15.338;2023-04-16T08:05:19;6.53;;;3.75;;
47635;SDS011;33364;50.766;15.338;2023-04-16T08:07:45;3.75;;;1.85;;
47635;SDS011;33364;50.766;15.338;2023-04-16T08:10:11;2.65;;;1.90;;
47635;SDS011;33364;50.766;15.338;2023-04-16T08:12:37;3.40;;;1.70;;
47635;SDS011;33364;50.766;15.338;2023-04-16T08:15:03;3.03;;;1.85;;
47635;SDS011;33364;50.766;15.338;2023-04-16T08:17:29;18.48;;;9.60;;
47635;SDS011;33364;50.766;15.338;2023-04-16T08:19:55;32.05;;;9.60;;
47635;SDS011;33364;50.766;15.338;2023-04-16T08:22:21;18.40;;;7.70;;
47635;SDS011;33364;50.766;15.338;2023-04-16T08:24:47;17.15;;;8.57;;
47635;SDS011;33364;50.766;15.338;2023-04-16T08:27:12;9.82;;;4.25;;
47635;SDS011;33364;50.766;15.338;2023-04-16T08:29:38;4.25;;;3.17;;
47635;SDS011;33364;50.766;15.338;2023-04-16T08:32:04;5.00;;;3.08;;
47635;SDS011;33364;50.766;15.338;2023-04-16T08:34:30;3.67;;;2.30;;
47635;SDS011;33364;50.766;15.338;2023-04-16T08:36:56;4.85;;;1.52;;
47635;SDS011;33364;50.766;15.338;2023-04-16T08:39:22;3.38;;;1.05;;
47635;SDS011;33364;50.766;15.338;2023-04-16T08:41:48;1.30;;;0.82;;
47635;SDS011;33364;50.766;15.338;2023-04-16T08:44:27;1.33;;;0.90;;
47635;SDS011;33364;50.766;15.338;2023-04-16T08:46:56;1.80;;;0.98;;
47635;SDS011;33364;50.766;15.338;2023-04-16T08:49:23;1.25;;;0.95;;
47635;SDS011;33364;50.766;15.338;2023-04-16T08:51:51;2.63;;;1.50;;
47635;SDS011;33364;50.766;15.338;2023-04-16T08:55:03;4.07;;;1.55;;
47635;SDS011;33364;50.766;15.338;2023-04-16T08:57:29;1.55;;;1.00;;
47635;SDS011;33364;50.766;15.338;2023-04-16T08:59:58;1.60;;;1.10;;
47635;SDS011;33364;50.766;15.338;2023-04-16T09:02:25;2.03;;;1.17;;
47635;SDS011;33364;50.766;15.338;2023-04-16T09:04:51;1.45;;;1.00;;
47635;SDS011;33364;50.766;15.338;2023-04-16T09:07:18;2.10;;;1.10;;
47635;SDS011;33364;50.766;15.338;2023-04-16T09:09:45;3.22;;;1.42;;
47635;SDS011;33364;50.766;15.338;2023-04-16T09:12:14;3.00;;;1.45;;
47635;SDS011;33364;50.766;15.338;2023-04-16T09:14:40;2.45;;;1.15;;
47635;SDS011;33364;50.766;15.338;2023-04-16T09:17:07;2.10;;;1.80;;
47635;SDS011;33364;50.766;15.338;2023-04-16T09:19:33;2.88;;;1.35;;
47635;SDS011;33364;50.766;15.338;2023-04-16T09:21:59;2.78;;;1.65;;
47635;SDS011;33364;50.766;15.338;2023-04-16T09:24:24;4.15;;;2.67;;
47635;SDS011;33364;50.766;15.338;2023-04-16T09:26:50;5.05;;;3.03;;
47635;SDS011;33364;50.766;15.338;2023-04-16T09:32:04;5.00;;;3.30;;
47635;SDS011;33364;50.766;15.338;2023-04-16T09:34:32;3.92;;;2.45;;
47635;SDS011;33364;50.766;15.338;2023-04-16T09:37:16;8.27;;;3.13;;
47635;SDS011;33364;50.766;15.338;2023-04-16T09:39:42;3.35;;;2.08;;
47635;SDS011;33364;50.766;15.338;2023-04-16T09:42:10;6.25;;;2.20;;
47635;SDS011;33364;50.766;15.338;2023-04-16T09:44:36;5.72;;;2.60;;
47635;SDS011;33364;50.766;15.338;2023-04-16T09:47:06;3.80;;;2.53;;
47635;SDS011;33364;50.766;15.338;2023-04-16T09:49:42;5.25;;;2.92;;
47635;SDS011;33364;50.766;15.338;2023-04-16T09:52:12;3.85;;;2.60;;
47635;SDS011;33364;50.766;15.338;2023-04-16T09:57:20;3.03;;;1.83;;
47635;SDS011;33364;50.766;15.338;2023-04-16T09:59:47;4.72;;;2.05;;
47635;SDS011;33364;50.766;15.338;2023-04-16T10:02:16;2.10;;;1.55;;
47635;SDS011;33364;50.766;15.338;2023-04-16T10:04:49;3.08;;;1.70;;
47635;SDS011;33364;50.766;15.338;2023-04-16T10:07:16;2.80;;;1.63;;
47635;SDS011;33364;50.766;15.338;2023-04-16T10:09:43;3.00;;;1.90;;
47635;SDS011;33364;50.766;15.338;2023-04-16T10:12:09;3.63;;;1.50;;
47635;SDS011;33364;50.766;15.338;2023-04-16T10:14:37;3.38;;;1.98;;
47635;SDS011;33364;50.766;15.338;2023-04-16T10:17:03;3.70;;;2.28;;
47635;SDS011;33364;50.766;15.338;2023-04-16T10:19:30;3.35;;;1.80;;
47635;SDS011;33364;50.766;15.338;2023-04-16T10:21:57;1.90;;;1.40;;
47635;SDS011;33364;50.766;15.338;2023-04-16T10:24:24;3.90;;;2.08;;
47635;SDS011;33364;50.766;15.338;2023-04-16T10:26:53;5.75;;;2.78;;
47635;SDS011;33364;50.766;15.338;2023-04-16T10:29:19;4.45;;;3.00;;
47635;SDS011;33364;50.766;15.338;2023-04-16T10:31:46;4.78;;;3.50;;
47635;SDS011;33364;50.766;15.338;2023-04-16T10:34:13;4.72;;;2.35;;
47635;SDS011;33364;50.766;15.338;2023-04-16T10:36:40;2.83;;;1.60;;
47635;SDS011;33364;50.766;15.338;2023-04-16T10:39:09;2.28;;;1.58;;
47635;SDS011;33364;50.766;15.338;2023-04-16T10:41:37;3.38;;;2.33;;
47635;SDS011;33364;50.766;15.338;2023-04-16T10:44:03;2.78;;;1.80;;
47635;SDS011;33364;50.766;15.338;2023-04-16T10:46:38;2.33;;;1.40;;
47635;SDS011;33364;50.766;15.338;2023-04-16T10:49:11;3.83;;;2.20;;
47635;SDS011;33364;50.766;15.338;2023-04-16T10:51:40;2.00;;;1.10;;
47635;SDS011;33364;50.766;15.338;2023-04-16T10:56:39;2.78;;;1.85;;
47635;SDS011;33364;50.766;15.338;2023-04-16T10:59:17;2.47;;;1.27;;
47635;SDS011;33364;50.766;15.338;2023-04-16T11:01:51;5.03;;;1.67;;
47635;SDS011;33364;50.766;15.338;2023-04-16T11:14:57;2.15;;;1.17;;
47635;SDS011;33364;50.766;15.338;2023-04-16T11:17:29;2.35;;;1.17;;
47635;SDS011;33364;50.766;15.338;2023-04-16T11:19:57;1.75;;;1.13;;
47635;SDS011;33364;50.766;15.338;2023-04-16T11:22:23;2.00;;;1.48;;
47635;SDS011;33364;50.766;15.338;2023-04-16T11:24:55;2.15;;;1.75;;
47635;SDS011;33364;50.766;15.338;2023-04-16T11:27:24;2.25;;;1.67;;
47635;SDS011;33364;50.766;15.338;2023-04-16T11:30:00;1.80;;;1.30;;
47635;SDS011;33364;50.766;15.338;2023-04-16T11:32:30;1.83;;;1.35;;
47635;SDS011;33364;50.766;15.338;2023-04-16T11:34:57;3.78;;;2.28;;
47635;SDS011;33364;50.766;15.338;2023-04-16T11:37:34;2.97;;;2.30;;
47635;SDS011;33364;50.766;15.338;2023-04-16T11:40:01;2.72;;;1.77;;
47635;SDS011;33364;50.766;15.338;2023-04-16T11:42:32;3.35;;;1.80;;
47635;SDS011;33364;50.766;15.338;2023-04-16T11:45:01;3.75;;;1.85;;
47635;SDS011;33364;50.766;15.338;2023-04-16T11:47:28;5.07;;;2.58;;
47635;SDS011;33364;50.766;15.338;2023-04-16T11:49:55;10.82;;;3.70;;
47635;SDS011;33364;50.766;15.338;2023-04-16T11:52:40;9.10;;;5.25;;
47635;SDS011;33364;50.766;15.338;2023-04-16T11:55:06;5.05;;;3.03;;
47635;SDS011;33364;50.766;15.338;2023-04-16T11:57:32;4.57;;;3.50;;
47635;SDS011;33364;50.766;15.338;2023-04-16T11:59:58;3.53;;;2.20;;
47635;SDS011;33364;50.766;15.338;2023-04-16T12:02:37;3.92;;;3.10;;
47635;SDS011;33364;50.766;15.338;2023-04-16T12:05:47;5.15;;;4.65;;
47635;SDS011;33364;50.766;15.338;2023-04-16T12:08:08;5.30;;;2.25;;
47635;SDS011;33364;50.766;15.338;2023-04-16T12:10:36;4.30;;;2.40;;
47635;SDS011;33364;50.766;15.338;2023-04-16T12:13:17;3.58;;;2.75;;
47635;SDS011;33364;50.766;15.338;2023-04-16T12:18:10;5.10;;;3.35;;
47635;SDS011;33364;50.766;15.338;2023-04-16T12:20:39;2.38;;;1.70;;
47635;SDS011;33364;50.766;15.338;2023-04-16T12:23:09;3.75;;;1.70;;
47635;SDS011;33364;50.766;15.338;2023-04-16T12:25:46;3.47;;;1.73;;
47635;SDS011;33364;50.766;15.338;2023-04-16T12:28:14;3.58;;;1.52;;
47635;SDS011;33364;50.766;15.338;2023-04-16T12:30:51;7.47;;;5.25;;
47635;SDS011;33364;50.766;15.338;2023-04-16T12:33:18;3.78;;;2.00;;
47635;SDS011;33364;50.766;15.338;2023-04-16T12:35:43;4.00;;;2.13;;
47635;SDS011;33364;50.766;15.338;2023-04-16T12:38:10;3.60;;;1.90;;
47635;SDS011;33364;50.766;15.338;2023-04-16T12:40:36;4.60;;;3.47;;
47635;SDS011;33364;50.766;15.338;2023-04-16T12:43:03;12.85;;;8.27;;
47635;SDS011;33364;50.766;15.338;2023-04-16T12:45:28;7.70;;;5.80;;
47635;SDS011;33364;50.766;15.338;2023-04-16T12:47:54;11.05;;;7.10;;
47635;SDS011;33364;50.766;15.338;2023-04-16T12:50:20;3.60;;;2.45;;
47635;SDS011;33364;50.766;15.338;2023-04-16T12:52:47;3.47;;;2.63;;
47635;SDS011;33364;50.766;15.338;2023-04-16T12:55:12;8.07;;;4.78;;
47635;SDS011;33364;50.766;15.338;2023-04-16T12:57:39;8.68;;;6.10;;
47635;SDS011;33364;50.766;15.338;2023-04-16T13:00:05;7.53;;;5.50;;
47635;SDS011;33364;50.766;15.338;2023-04-16T13:02:32;5.22;;;3.65;;
47635;SDS011;33364;50.766;15.338;2023-04-16T13:04:58;7.10;;;5.32;;
47635;SDS011;33364;50.766;15.338;2023-04-16T13:07:24;3.22;;;2.67;;
47635;SDS011;33364;50.766;15.338;2023-04-16T13:09:51;3.65;;;2.67;;
47635;SDS011;33364;50.766;15.338;2023-04-16T13:12:17;4.53;;;3.50;;
47635;SDS011;33364;50.766;15.338;2023-04-16T13:14:43;5.97;;;4.18;;
47635;SDS011;33364;50.766;15.338;2023-04-16T13:17:09;3.55;;;2.53;;
47635;SDS011;33364;50.766;15.338;2023-04-16T13:19:35;8.05;;;4.57;;
47635;SDS011;33364;50.766;15.338;2023-04-16T13:22:01;8.00;;;5.80;;
47635;SDS011;33364;50.766;15.338;2023-04-16T13:24:26;6.47;;;4.95;;
47635;SDS011;33364;50.766;15.338;2023-04-16T13:26:52;4.07;;;2.58;;
47635;SDS011;33364;50.766;15.338;2023-04-16T13:29:21;3.97;;;2.50;;
47635;SDS011;33364;50.766;15.338;2023-04-16T13:31:47;4.43;;;3.50;;
47635;SDS011;33364;50.766;15.338;2023-04-16T13:34:13;4.57;;;2.40;;
47635;SDS011;33364;50.766;15.338;2023-04-16T13:36:39;2.92;;;2.20;;
47635;SDS011;33364;50.766;15.338;2023-04-16T13:39:05;3.13;;;2.15;;
47635;SDS011;33364;50.766;15.338;2023-04-16T13:41:35;5.57;;;3.63;;
47635;SDS011;33364;50.766;15.338;2023-04-16T13:44:01;5.97;;;4.05;;
47635;SDS011;33364;50.766;15.338;2023-04-16T13:46:27;6.38;;;4.93;;
47635;SDS011;33364;50.766;15.338;2023-04-16T13:48:53;6.75;;;4.32;;
47635;SDS011;33364;50.766;15.338;2023-04-16T13:51:20;12.55;;;9.80;;
47635;SDS011;33364;50.766;15.338;2023-04-16T13:53:46;7.38;;;5.47;;
47635;SDS011;33364;50.766;15.338;2023-04-16T13:56:12;7.07;;;4.53;;
47635;SDS011;33364;50.766;15.338;2023-04-16T13:58:38;6.63;;;3.78;;
47635;SDS011;33364;50.766;15.338;2023-04-16T14:01:04;5.30;;;3.85;;
47635;SDS011;33364;50.766;15.338;2023-04-16T14:03:30;4.03;;;2.90;;
47635;SDS011;33364;50.766;15.338;2023-04-16T14:06:01;8.02;;;4.30;;
47635;SDS011;33364;50.766;15.338;2023-04-16T14:08:27;17.17;;;8.63;;
47635;SDS011;33364;50.766;15.338;2023-04-16T14:10:55;101.93;;;42.17;;
47635;SDS011;33364;50.766;15.338;2023-04-16T14:13:21;89.72;;;35.10;;
47635;SDS011;33364;50.766;15.338;2023-04-16T14:15:47;48.63;;;17.00;;
47635;SDS011;33364;50.766;15.338;2023-04-16T14:18:13;18.08;;;7.50;;
47635;SDS011;33364;50.766;15.338;2023-04-16T14:20:39;7.03;;;4.10;;
47635;SDS011;33364;50.766;15.338;2023-04-16T14:23:05;13.15;;;5.75;;
47635;SDS011;33364;50.766;15.338;2023-04-16T14:25:31;43.95;;;13.25;;
47635;SDS011;33364;50.766;15.338;2023-04-16T14:28:00;68.45;;;18.95;;
47635;SDS011;33364;50.766;15.338;2023-04-16T14:30:26;35.28;;;11.27;;
47635;SDS011;33364;50.766;15.338;2023-04-16T14:32:51;3.75;;;2.33;;
47635;SDS011;33364;50.766;15.338;2023-04-16T14:35:18;6.18;;;3.30;;
47635;SDS011;33364;50.766;15.338;2023-04-16T14:37:44;5.80;;;3.92;;
47635;SDS011;33364;50.766;15.338;2023-04-16T14:40:11;3.92;;;2.58;;
47635;SDS011;33364;50.766;15.338;2023-04-16T14:42:37;5.00;;;2.88;;
47635;SDS011;33364;50.766;15.338;2023-04-16T14:45:03;5.85;;;3.45;;
47635;SDS011;33364;50.766;15.338;2023-04-16T14:47:33;7.10;;;4.57;;
47635;SDS011;33364;50.766;15.338;2023-04-16T14:50:00;5.35;;;3.60;;
47635;SDS011;33364;50.766;15.338;2023-04-16T14:52:26;7.30;;;3.20;;